الرياض, Saudi Arabia

11:59 PM AST on êواêر 23, 2017 (GMT +0300)
Panorama | | Change Station

Elev 2119 ft 24.72 °N, 46.63 °E | Updated 1 minute ago

صافية
صافية
57.7 °F
Feels Like 57.7 °F
N
0.6
ريح متغير ريح from شمال
Gusts 1.2 mph

هذا اليوم
High -- | Low -- °F
--% Chance of Precip.
Yesterday
High -- | Low -- °F
Precip. -- في
الضغط 30.21 في
وضوح الرؤية -9999.0 أميال
سحابات
نقطة الندى 29 °F
الرطوبة 33%
Rainfall Not available.
عمق الثلج Not available.
6:38 AM 5:31 PM
الهلال الأخير, 16% visible
METAR OERK 232000Z 02004KT CAVOK 12/M05 Q1023 NOSIG
الضغط 30.21 في
وضوح الرؤية -9999.0 أميال
سحابات
نقطة الندى 29 °F
الرطوبة 33%
Rainfall Not available.
عمق الثلج Not available.
6:38 AM 5:31 PM
الهلال الأخير, 16% visible
METAR OERK 232000Z 02004KT CAVOK 12/M05 Q1023 NOSIG

Get Your Daily Forecast Email!

Thanks for signing up!

Be on the lookout for a verification email in your inbox.

You'll start receiving the daily forecast at 8 AM.

×

10-Day Weather Forecast

No radar image for this location.
×

Almanac

علم الفلك

Jan. 23, 2017 Rise Set
Actual Time
Civil Twilight
Nautical Twilight
Astronomical Twilight
قمر
Length Of Visible Light
طول الیوم
Tomorrow will be .
, % of the Moon is Illuminated

Today's Extremes

Country Highs Country Lows

Community

WunderPhotos

Upload Photos

1,962,540 photos uploaded!

WunderBlog® & News

Nearby

جودة الهواء

  جودة الهواء AQ Index Pollutant
Not available.

عمق الثلج

Station Depth Elevation

Earthquake Activity

City Distance Mag. Time & Date
Minimum magnitude displayed is 2.5.

Coastal Water Temperatures

مكان درجات الحرارة

Stations

Nearby Weather Stations

Station Location الحرارة رياح باردة نقطة الندى الرطوبة ريح Precip. Elev تحديث Type